Time;durP1;ratioP1;P1;durP2;ratioP2;P2;SDS_P1;SDS_P2;PMS_P1;PMS_P2;Temp;Humidity;BMP_temperature;BMP_pressure;BME280_temperature;BME280_humidity;BME280_pressure;Samples;Min_cycle;Max_cycle;Signal;HPM_P1;HPM_P2
2021/12/30 00:01:53;;;;;;;38.33;7.63;;;13.40;99.90;;;12.65;100.00;101519.22;4160559;28;20540;-67
2021/12/30 00:03:55;;;;;;;29.70;6.80;;;13.30;99.90;;;12.64;100.00;101527.31;4153114;28;20124;-67
2021/12/30 00:05:56;;;;;;;37.55;8.05;;;13.40;99.90;;;12.56;100.00;101528.06;4168881;28;20049;-66
2021/12/30 00:07:57;;;;;;;33.92;6.10;;;13.40;99.90;;;12.61;100.00;101531.09;4147224;28;20038;-66
2021/12/30 00:09:59;;;;;;;42.88;7.18;;;13.40;99.90;;;12.67;100.00;101535.78;4162175;28;20049;-66
2021/12/30 00:11:59;;;;;;;36.30;7.57;;;13.40;99.90;;;12.59;100.00;101538.34;4170509;28;20025;-66
2021/12/30 00:14:00;;;;;;;28.60;6.85;;;13.30;99.90;;;12.50;100.00;101523.38;4170226;28;20045;-66
2021/12/30 00:16:02;;;;;;;38.80;7.18;;;13.30;99.90;;;12.52;100.00;101531.16;4170346;28;20108;-66
2021/12/30 00:18:06;;;;;;;32.83;6.72;;;13.30;99.90;;;12.50;100.00;101533.13;4170426;28;20053;-66
2021/12/30 00:20:09;;;;;;;30.58;6.43;;;13.20;99.90;;;12.49;100.00;101528.81;4156283;28;20040;-66
2021/12/30 00:22:10;;;;;;;26.70;6.28;;;13.20;99.90;;;12.49;100.00;101529.63;4160289;28;20452;-66
2021/12/30 00:24:11;;;;;;;30.13;5.70;;;13.10;99.90;;;12.41;100.00;101520.78;4159365;28;20523;-66
2021/12/30 00:26:12;;;;;;;29.60;5.40;;;13.10;99.90;;;12.42;100.00;101525.09;4169068;28;20033;-66
2021/12/30 00:28:21;;;;;;;33.42;6.78;;;13.10;99.90;;;12.42;100.00;101525.09;4157298;28;20065;-66
2021/12/30 00:30:22;;;;;;;35.50;5.88;;;13.10;99.90;;;12.42;100.00;101531.22;4136245;28;20022;-67
2021/12/30 00:32:23;;;;;;;38.10;5.82;;;13.00;99.90;;;12.34;100.00;101525.81;4161171;28;20079;-67
2021/12/30 00:34:24;;;;;;;38.92;5.10;;;13.00;99.90;;;12.38;100.00;101532.50;4170161;28;20521;-67
2021/12/30 00:36:25;;;;;;;32.70;5.95;;;13.00;99.90;;;12.29;100.00;101520.16;4155166;28;20029;-67
2021/12/30 00:38:26;;;;;;;34.28;5.95;;;12.90;99.90;;;12.25;100.00;101534.66;4157356;28;20397;-67
2021/12/30 00:40:27;;;;;;;31.30;5.93;;;12.90;99.90;;;12.25;100.00;101526.72;4170040;28;20112;-67
2021/12/30 00:42:28;;;;;;;32.60;5.70;;;12.80;99.90;;;12.25;100.00;101523.22;4158828;28;20030;-67
2021/12/30 00:44:29;;;;;;;31.67;5.80;;;12.80;99.90;;;12.29;100.00;101536.03;4152136;28;20096;-67
2021/12/30 00:46:30;;;;;;;28.85;6.05;;;12.80;99.90;;;12.28;100.00;101518.47;4153726;28;20501;-67
2021/12/30 00:48:31;;;;;;;25.38;6.35;;;12.80;99.90;;;12.18;100.00;101521.19;4153656;28;20113;-67
2021/12/30 00:50:36;;;;;;;27.48;5.20;;;12.90;99.90;;;12.25;100.00;101521.44;4161952;28;20026;-67
2021/12/30 00:52:38;;;;;;;31.90;5.93;;;12.80;99.90;;;12.19;100.00;101522.00;4168651;28;20022;-67
2021/12/30 00:54:39;;;;;;;39.97;6.85;;;12.70;99.90;;;12.08;100.00;101517.78;4166499;28;20101;-66
2021/12/30 00:56:39;;;;;;;31.27;6.22;;;12.70;99.90;;;12.04;100.00;101519.03;4153572;28;20026;-67
2021/12/30 00:58:40;;;;;;;27.42;5.75;;;12.70;99.90;;;11.99;100.00;101510.72;4153100;28;20505;-66
2021/12/30 01:00:44;;;;;;;30.45;5.65;;;12.70;99.90;;;11.96;100.00;101513.66;4153435;28;20474;-66
2021/12/30 01:02:46;;;;;;;26.08;5.70;;;12.60;99.90;;;12.07;100.00;101515.25;4152364;28;20029;-66
2021/12/30 01:04:47;;;;;;;29.83;7.13;;;12.60;99.90;;;12.00;100.00;101517.69;4158729;28;20041;-66
2021/12/30 01:06:48;;;;;;;37.85;5.45;;;12.60;99.90;;;12.05;100.00;101517.22;4168524;28;20120;-66
2021/12/30 01:08:49;;;;;;;28.88;6.47;;;12.60;99.90;;;12.02;100.00;101521.00;4155483;28;20054;-66
2021/12/30 01:10:50;;;;;;;28.38;4.53;;;12.60;99.90;;;12.07;100.00;101523.19;4169239;28;20500;-66
2021/12/30 01:12:53;;;;;;;36.75;6.68;;;12.50;99.90;;;11.97;100.00;101523.25;4162722;28;20510;-66
2021/12/30 01:14:54;;;;;;;25.42;6.15;;;12.50;99.90;;;11.94;100.00;101526.19;4151557;28;20584;-66
2021/12/30 01:16:59;;;;;;;22.88;5.72;;;12.50;99.90;;;11.93;100.00;101532.44;4164881;28;20037;-66
2021/12/30 01:19:15;;;;;;;29.85;6.78;;;12.40;99.90;;;11.95;100.00;101530.47;4168423;28;20093;-68
2021/12/30 01:21:16;;;;;;;23.52;6.25;;;12.50;99.90;;;11.93;100.00;101532.44;4162374;28;20030;-66
2021/12/30 01:23:18;;;;;;;36.85;5.60;;;12.40;99.90;;;11.91;100.00;101531.78;4157736;28;20026;-66
2021/12/30 01:25:19;;;;;;;23.10;5.85;;;12.40;99.90;;;11.83;100.00;101533.44;4166881;28;20495;-66
2021/12/30 01:27:22;;;;;;;34.40;7.05;;;12.40;99.90;;;11.84;100.00;101546.53;4163814;28;20501;-66
2021/12/30 01:29:24;;;;;;;20.40;5.13;;;12.40;99.90;;;11.89;100.00;101536.34;4152762;28;20030;-66
2021/12/30 01:31:25;;;;;;;25.90;5.70;;;12.40;99.90;;;11.88;100.00;101537.34;4163610;28;20024;-66
2021/12/30 01:33:27;;;;;;;31.15;5.88;;;12.40;99.90;;;11.88;100.00;101542.63;4154158;28;20029;-66
2021/12/30 01:35:28;;;;;;;30.48;7.03;;;12.40;99.90;;;11.89;100.00;101544.28;4153031;28;20053;-66
2021/12/30 01:37:29;;;;;;;33.42;5.93;;;12.40;99.90;;;11.86;100.00;101549.84;4152977;28;20033;-66
2021/12/30 01:39:34;;;;;;;23.98;5.30;;;12.40;99.90;;;11.81;100.00;101540.69;4152795;28;20450;-66
2021/12/30 01:41:35;;;;;;;32.13;5.35;;;12.40;99.90;;;11.86;100.00;101549.00;4166486;28;20084;-66
2021/12/30 01:43:37;;;;;;;30.48;5.28;;;12.30;99.90;;;11.80;100.00;101547.78;4168005;28;20033;-67
2021/12/30 01:45:41;;;;;;;24.27;5.47;;;12.40;99.90;;;11.84;100.00;101553.63;4167996;28;20044;-66
2021/12/30 01:47:49;;;;;;;26.23;4.47;;;12.40;99.90;;;11.84;100.00;101551.81;4167937;28;20029;-66
2021/12/30 01:49:51;;;;;;;22.35;4.70;;;12.40;99.90;;;11.84;100.00;101551.81;4167881;28;20041;-67
2021/12/30 01:51:55;;;;;;;25.27;4.47;;;12.40;99.90;;;11.85;100.00;101547.38;4162727;28;20101;-66
2021/12/30 01:53:58;;;;;;;19.38;4.20;;;12.40;99.90;;;11.92;100.00;101559.00;4161305;28;20116;-67
2021/12/30 01:55:59;;;;;;;20.65;5.20;;;12.40;99.90;;;11.92;100.00;101554.56;4167644;28;20057;-66
2021/12/30 01:58:01;;;;;;;24.83;5.45;;;12.30;99.90;;;11.87;100.00;101556.81;4164804;28;20049;-67
2021/12/30 02:00:08;;;;;;;27.88;4.45;;;12.40;99.90;;;11.91;100.00;101557.38;4158804;28;20045;-67
2021/12/30 02:02:09;;;;;;;24.85;7.82;;;12.40;99.90;;;11.94;100.00;101560.56;4157262;28;20030;-67
2021/12/30 02:04:11;;;;;;;25.83;4.85;;;12.40;99.90;;;11.84;100.00;101556.28;4165891;28;20083;-67
2021/12/30 02:06:12;;;;;;;29.38;5.57;;;12.40;99.90;;;11.78;100.00;101565.63;4163908;28;20061;-67
2021/12/30 02:08:16;;;;;;;35.53;5.57;;;12.30;99.90;;;11.81;100.00;101567.13;4159562;28;20060;-67
2021/12/30 02:10:17;;;;;;;25.55;5.15;;;12.30;99.90;;;11.83;100.00;101563.38;4167348;28;20034;-67
2021/12/30 02:12:18;;;;;;;25.45;4.75;;;12.30;99.90;;;11.85;100.00;101569.34;4153670;28;20040;-66
2021/12/30 02:14:19;;;;;;;28.23;4.68;;;12.30;99.90;;;11.83;100.00;101573.94;4155636;28;20028;-67
2021/12/30 02:16:21;;;;;;;24.67;5.22;;;12.30;99.90;;;11.88;100.00;101568.22;4160640;28;20041;-67
2021/12/30 02:18:23;;;;;;;25.48;5.40;;;12.30;99.90;;;11.82;100.00;101574.09;4162759;28;20056;-66
2021/12/30 02:20:54;;;;;;;25.23;4.88;;;12.30;99.90;;;11.91;100.00;101571.44;4153487;28;20503;-67
2021/12/30 02:22:55;;;;;;;32.42;6.78;;;12.40;99.90;;;11.94;100.00;101573.78;4157565;28;20026;-67
2021/12/30 02:24:58;;;;;;;28.48;4.78;;;12.40;99.90;;;11.89;100.00;101570.72;4164416;28;20056;-67
2021/12/30 02:26:59;;;;;;;28.10;5.53;;;12.50;99.90;;;11.95;100.00;101575.44;4168474;28;20025;-67
2021/12/30 02:29:00;;;;;;;35.08;7.13;;;12.50;99.90;;;12.01;100.00;101587.22;4168253;28;20037;-67
2021/12/30 02:31:13;;;;;;;32.05;6.20;;;12.50;99.90;;;11.96;100.00;101589.50;4168538;28;20114;-67
2021/12/30 02:33:14;;;;;;;28.00;5.20;;;12.60;99.90;;;12.02;100.00;101589.75;4153921;28;20057;-66
2021/12/30 02:35:15;;;;;;;26.80;4.60;;;12.60;99.90;;;12.02;100.00;101589.75;4163997;28;20026;-67
2021/12/30 02:37:19;;;;;;;22.85;4.82;;;12.60;99.90;;;12.03;100.00;101594.06;4158836;28;20508;-66
2021/12/30 02:39:23;;;;;;;26.10;4.55;;;12.50;99.90;;;12.04;100.00;101590.44;4156185;28;20025;-67
2021/12/30 02:41:26;;;;;;;26.75;5.25;;;12.70;99.90;;;12.15;100.00;101584.97;4165894;28;20413;-66
2021/12/30 02:43:31;;;;;;;30.77;6.72;;;12.60;99.90;;;12.13;100.00;101578.13;4168529;28;20499;-66
2021/12/30 02:45:32;;;;;;;26.88;4.45;;;12.70;99.90;;;12.16;100.00;101577.84;4159329;28;20065;-66
2021/12/30 02:47:34;;;;;;;27.65;4.80;;;12.70;99.90;;;12.21;100.00;101575.63;4163134;28;20520;-68
2021/12/30 02:49:35;;;;;;;25.15;5.07;;;12.80;99.90;;;12.30;100.00;101587.13;4150523;28;20030;-67
2021/12/30 02:51:36;;;;;;;25.77;6.03;;;12.80;99.90;;;12.34;100.00;101576.09;4164263;28;20033;-67
2021/12/30 02:53:39;;;;;;;24.48;5.60;;;12.80;99.90;;;12.31;100.00;101583.50;4158482;28;20025;-67
2021/12/30 02:55:42;;;;;;;27.50;4.60;;;12.90;99.90;;;12.30;100.00;101579.19;4157239;28;20033;-67
2021/12/30 02:57:43;;;;;;;26.75;5.22;;;12.90;99.90;;;12.25;100.00;101581.44;4165269;28;20022;-67
2021/12/30 02:59:44;;;;;;;29.83;4.85;;;13.00;99.90;;;12.35;100.00;101592.81;4161903;28;20644;-66
2021/12/30 03:01:45;;;;;;;18.55;5.13;;;13.00;99.90;;;12.27;100.00;101584.78;4160307;28;20025;-67
2021/12/30 03:03:46;;;;;;;22.10;4.65;;;13.00;99.90;;;12.26;100.00;101577.81;4168178;28;20029;-67
2021/12/30 03:05:49;;;;;;;28.92;4.93;;;13.00;99.90;;;12.34;100.00;101591.13;4168124;28;20037;-67
2021/12/30 03:07:52;;;;;;;19.45;5.35;;;13.00;99.90;;;12.31;100.00;101586.13;4168326;28;20033;-66
2021/12/30 03:09:53;;;;;;;23.80;4.60;;;13.00;99.90;;;12.42;100.00;101589.44;4158685;28;20072;-67
2021/12/30 03:11:56;;;;;;;28.52;5.03;;;13.00;99.90;;;12.43;100.00;101590.25;4163249;28;20033;-67
2021/12/30 03:13:59;;;;;;;23.85;4.90;;;13.00;99.90;;;12.41;100.00;101581.63;4167750;28;20028;-66
2021/12/30 03:16:15;;;;;;;22.60;5.05;;;13.00;99.90;;;12.42;100.00;101578.88;4161831;28;20076;-67
2021/12/30 03:18:16;;;;;;;28.27;5.50;;;13.00;99.90;;;12.45;100.00;101583.88;4160808;28;20033;-66
2021/12/30 03:20:17;;;;;;;28.98;4.28;;;13.10;99.90;;;12.50;100.00;101581.59;4168057;28;20397;-67
2021/12/30 03:22:18;;;;;;;25.33;4.90;;;13.00;99.90;;;12.46;100.00;101580.22;4164577;28;20061;-67
2021/12/30 03:24:19;;;;;;;21.48;4.22;;;13.10;99.90;;;12.43;100.00;101584.97;4151840;28;20033;-66
2021/12/30 03:26:22;;;;;;;21.10;4.78;;;13.00;99.90;;;12.39;100.00;101584.44;4151722;28;20026;-67
2021/12/30 03:28:23;;;;;;;19.30;4.78;;;13.00;99.90;;;12.43;100.00;101588.44;4151666;28;20034;-67
2021/12/30 03:30:25;;;;;;;24.50;4.22;;;13.00;99.90;;;12.36;100.00;101599.78;4166400;28;20029;-66
2021/12/30 03:32:26;;;;;;;23.42;6.00;;;12.90;99.90;;;12.21;100.00;101589.66;4166876;28;20029;-67
2021/12/30 03:34:27;;;;;;;19.58;3.63;;;12.90;99.90;;;12.30;100.00;101605.66;4166793;28;20535;-66
2021/12/30 03:36:28;;;;;;;17.25;4.53;;;12.90;99.90;;;12.31;100.00;101602.84;4154997;28;20054;-67
2021/12/30 03:38:33;;;;;;;19.75;4.28;;;12.80;99.90;;;12.37;100.00;101609.34;4151659;28;20022;-66
2021/12/30 03:40:34;;;;;;;22.27;4.22;;;12.80;99.90;;;12.33;100.00;101600.06;4157299;28;20036;-67
2021/12/30 03:42:36;;;;;;;36.55;6.72;;;12.80;99.90;;;12.25;100.00;101607.88;4166825;28;20029;-67
2021/12/30 03:44:37;;;;;;;19.55;3.83;;;12.80;99.90;;;12.23;100.00;101615.13;4166389;28;20115;-66
2021/12/30 03:46:37;;;;;;;25.92;4.05;;;12.80;99.90;;;12.26;100.00;101617.50;4164625;28;20026;-67
2021/12/30 03:48:44;;;;;;;21.30;4.57;;;12.80;99.90;;;12.22;100.00;101606.38;4151656;28;20030;-66
2021/12/30 03:50:45;;;;;;;13.50;4.32;;;12.80;99.90;;;12.26;100.00;101610.41;4153140;28;20084;-66
2021/12/30 03:52:53;;;;;;;31.15;6.97;;;12.80;99.90;;;12.12;100.00;101611.72;4167396;28;20089;-67
2021/12/30 03:54:53;;;;;;;26.35;4.15;;;12.80;99.90;;;12.15;100.00;101611.44;4165918;28;20068;-67
2021/12/30 03:56:54;;;;;;;20.85;3.35;;;12.80;99.90;;;12.23;100.00;101613.34;4154451;28;20080;-66
2021/12/30 03:58:57;;;;;;;19.85;5.40;;;12.80;99.90;;;12.31;100.00;101617.88;4165173;28;20068;-66
2021/12/30 04:00:59;;;;;;;25.73;5.20;;;12.70;99.90;;;12.17;100.00;101616.56;4156221;28;20026;-67
2021/12/30 04:03:00;;;;;;;20.48;5.13;;;12.80;99.90;;;12.26;100.00;101614.84;4165621;28;20501;-67
2021/12/30 04:05:01;;;;;;;21.50;4.65;;;12.80;99.90;;;12.27;100.00;101621.81;4154352;28;20042;-66
2021/12/30 04:07:03;;;;;;;27.33;4.30;;;12.80;99.90;;;12.15;100.00;101615.88;4164651;28;20061;-66
2021/12/30 04:09:06;;;;;;;22.30;3.78;;;12.80;99.90;;;12.21;100.00;101616.09;4155568;28;20449;-66
2021/12/30 04:11:07;;;;;;;22.33;4.80;;;12.80;99.90;;;12.19;100.00;101620.72;4158443;28;20393;-66
2021/12/30 04:13:08;;;;;;;30.33;5.07;;;12.80;99.90;;;12.17;100.00;101622.69;4169511;28;20025;-66
2021/12/30 04:15:11;;;;;;;23.63;4.22;;;12.70;99.90;;;12.23;100.00;101626.56;4169018;28;20029;-66
2021/12/30 04:17:12;;;;;;;25.40;5.70;;;12.70;99.90;;;12.17;100.00;101621.84;4169264;28;20033;-66
2021/12/30 04:19:12;;;;;;;21.50;4.25;;;12.80;99.90;;;12.17;100.00;101625.34;4169404;28;20029;-67
2021/12/30 04:21:15;;;;;;;19.98;4.13;;;12.70;99.90;;;12.10;100.00;101629.53;4163904;28;20030;-66
2021/12/30 04:23:16;;;;;;;18.75;4.15;;;12.70;99.90;;;12.15;100.00;101622.00;4158488;28;20083;-66
2021/12/30 04:25:17;;;;;;;19.73;4.13;;;12.70;99.90;;;12.11;100.00;101619.78;4153997;28;20493;-66
2021/12/30 04:27:19;;;;;;;20.23;4.10;;;12.70;99.90;;;12.17;100.00;101620.03;4157889;28;20163;-67
2021/12/30 04:29:20;;;;;;;24.05;4.30;;;12.70;99.90;;;12.21;100.00;101621.41;4168977;28;20057;-66
2021/12/30 04:31:21;;;;;;;17.98;3.92;;;12.70;99.90;;;12.12;100.00;101619.66;4169179;28;20021;-66
2021/12/30 04:33:22;;;;;;;26.08;5.25;;;12.70;99.90;;;12.10;100.00;101621.59;4155293;28;20088;-66
2021/12/30 04:35:23;;;;;;;19.98;3.30;;;12.60;99.90;;;12.01;100.00;101617.16;4154072;28;20460;-66
2021/12/30 04:37:26;;;;;;;21.13;3.83;;;12.60;99.90;;;12.04;100.00;101616.88;4160899;28;20488;-66
2021/12/30 04:39:29;;;;;;;17.33;3.58;;;12.60;99.90;;;11.98;100.00;101624.53;4141344;28;20038;-66
2021/12/30 04:41:30;;;;;;;17.10;4.17;;;12.60;99.90;;;12.10;100.00;101618.94;4153797;28;20026;-67
2021/12/30 04:43:31;;;;;;;22.17;4.22;;;12.60;99.90;;;12.03;100.00;101611.75;4157472;28;20029;-66
2021/12/30 04:45:32;;;;;;;26.27;5.70;;;12.60;99.90;;;12.03;100.00;101614.38;4168926;28;20034;-66
2021/12/30 04:47:33;;;;;;;17.88;4.28;;;12.60;99.90;;;12.02;100.00;101613.56;4170370;28;20160;-67
2021/12/30 04:49:34;;;;;;;19.42;3.47;;;12.50;99.90;;;11.99;100.00;101610.34;4169950;28;20031;-66
2021/12/30 04:51:35;;;;;;;21.27;4.63;;;12.50;99.90;;;11.98;100.00;101616.59;4164175;28;20105;-66
2021/12/30 04:53:36;;;;;;;18.63;3.40;;;12.50;99.90;;;11.90;100.00;101614.69;4161673;28;20517;-66
2021/12/30 04:55:37;;;;;;;14.35;4.18;;;12.50;99.90;;;12.08;100.00;101617.44;4157758;28;20408;-66
2021/12/30 04:57:38;;;;;;;25.75;4.82;;;12.50;99.90;;;12.06;100.00;101614.94;4153336;28;20037;-67
2021/12/30 04:59:40;;;;;;;21.42;4.22;;;12.60;99.90;;;11.93;100.00;101614.41;4168505;28;20112;-66
2021/12/30 05:01:40;;;;;;;18.98;3.72;;;12.60;99.90;;;11.92;100.00;101612.72;4168783;28;20496;-67
2021/12/30 05:03:41;;;;;;;21.65;4.55;;;12.60;99.90;;;11.86;100.00;101613.31;4169847;28;20057;-67
2021/12/30 05:05:50;;;;;;;22.13;4.03;;;12.50;99.90;;;11.89;100.00;101607.72;4169546;28;20058;-66
2021/12/30 05:07:50;;;;;;;22.67;3.55;;;12.60;99.90;;;11.94;100.00;101618.72;4169926;28;20049;-66
2021/12/30 05:09:51;;;;;;;21.50;4.07;;;12.60;99.90;;;11.95;100.00;101616.91;4160372;28;20038;-66
2021/12/30 05:11:53;;;;;;;19.33;5.40;;;12.60;99.90;;;12.05;100.00;101621.19;4164680;28;20033;-67
2021/12/30 05:13:54;;;;;;;28.95;5.35;;;12.60;99.90;;;12.06;100.00;101620.22;4169346;28;20035;-66
2021/12/30 05:15:55;;;;;;;28.42;5.07;;;12.60;99.90;;;12.03;100.00;101620.50;4163921;28;20022;-67
2021/12/30 05:17:56;;;;;;;26.23;4.00;;;12.70;99.90;;;12.05;100.00;101610.63;4161063;28;20029;-67
2021/12/30 05:19:57;;;;;;;23.08;4.78;;;12.70;99.90;;;12.08;100.00;101618.25;4169646;28;20509;-66
2021/12/30 05:21:58;;;;;;;15.52;4.20;;;12.70;99.90;;;12.08;100.00;101620.91;4168326;28;20030;-66
2021/12/30 05:23:59;;;;;;;17.42;3.70;;;12.80;99.90;;;12.08;100.00;101612.97;4156488;28;20022;-66
2021/12/30 05:26:00;;;;;;;18.42;4.97;;;12.70;99.90;;;12.14;100.00;101622.13;4168287;28;20524;-67
2021/12/30 05:28:02;;;;;;;32.90;4.75;;;12.80;99.90;;;12.13;100.00;101618.66;4169443;28;20210;-66
2021/12/30 05:30:06;;;;;;;19.17;4.07;;;12.90;99.90;;;12.05;100.00;101615.91;4167663;28;20040;-66
2021/12/30 05:32:07;;;;;;;;;;;12.90;99.90;;;12.12;100.00;101624.94;4168620;28;20028;-67
2021/12/30 05:34:08;;;;;;;22.45;3.92;;;12.80;99.90;;;12.11;100.00;101620.63;4169444;28;20364;-66
2021/12/30 05:36:08;;;;;;;20.70;3.92;;;12.80;99.90;;;12.09;100.00;101604.06;4169346;28;20072;-66
2021/12/30 05:38:09;;;;;;;23.05;5.20;;;12.80;99.90;;;12.15;100.00;101618.53;4169200;28;20106;-66
2021/12/30 05:40:16;;;;;;;19.50;3.97;;;12.90;99.90;;;12.14;100.00;101622.97;4163657;28;20594;-66
2021/12/30 05:42:17;;;;;;;22.75;4.72;;;12.90;99.90;;;12.16;100.00;101623.66;4161309;28;20029;-66
2021/12/30 05:44:18;;;;;;;20.40;3.67;;;12.80;99.90;;;12.17;100.00;101622.69;4168978;28;20026;-66
2021/12/30 05:46:19;;;;;;;19.70;4.03;;;12.80;99.90;;;12.27;100.00;101625.31;4152979;28;20021;-66
2021/12/30 05:48:20;;;;;;;27.85;5.60;;;12.90;99.90;;;12.21;100.00;101616.09;4156424;28;20468;-67
2021/12/30 05:50:26;;;;;;;23.70;4.00;;;12.90;99.90;;;12.17;100.00;101612.09;4160889;28;20367;-66
2021/12/30 05:52:27;;;;;;;22.15;4.70;;;12.80;99.90;;;12.18;100.00;101620.88;4155683;28;20026;-67
2021/12/30 05:54:28;;;;;;;21.85;4.70;;;12.90;99.90;;;12.15;100.00;101616.72;4167786;28;20444;-67
2021/12/30 05:56:29;;;;;;;16.52;3.47;;;12.80;99.90;;;12.20;100.00;101621.56;4162808;28;20034;-67
2021/12/30 05:58:30;;;;;;;16.65;4.72;;;12.90;99.90;;;12.24;100.00;101622.09;4152412;28;20537;-67
2021/12/30 06:00:32;;;;;;;19.20;4.47;;;12.80;99.90;;;12.33;100.00;101634.47;4162800;28;20456;-67
2021/12/30 06:02:34;;;;;;;20.95;4.65;;;12.80;99.90;;;12.31;100.00;101634.59;4136588;28;20569;-67
2021/12/30 06:04:35;;;;;;;19.23;4.25;;;12.80;99.90;;;12.32;100.00;101635.44;4156461;28;20050;-66
2021/12/30 06:06:36;;;;;;;22.77;4.10;;;12.90;99.90;;;12.27;100.00;101638.53;4167783;28;20060;-66
2021/12/30 06:08:37;;;;;;;18.48;4.18;;;12.90;99.90;;;12.24;100.00;101640.63;4168875;28;20029;-67
2021/12/30 06:10:40;;;;;;;19.35;3.35;;;12.90;99.90;;;12.24;100.00;101632.69;4152393;28;20033;-67
2021/12/30 06:12:43;;;;;;;22.75;3.70;;;12.90;99.90;;;12.23;100.00;101631.84;4134940;28;20037;-66
2021/12/30 06:14:44;;;;;;;15.77;3.25;;;12.90;99.90;;;12.25;100.00;101634.34;4160811;28;20088;-66
2021/12/30 06:16:45;;;;;;;20.98;3.92;;;12.90;99.90;;;12.27;100.00;101637.69;4168681;28;20036;-66
2021/12/30 06:18:45;;;;;;;18.38;4.20;;;12.90;99.90;;;12.30;100.00;101645.34;4168582;28;20021;-66
2021/12/30 06:20:46;;;;;;;16.45;4.32;;;12.90;99.90;;;12.38;100.00;101640.97;4168772;28;20033;-66
2021/12/30 06:22:49;;;;;;;15.25;3.70;;;13.00;99.90;;;12.31;100.00;101639.03;4158983;28;20061;-66
2021/12/30 06:24:50;;;;;;;22.88;6.05;;;13.00;99.90;;;12.26;100.00;101643.94;4163843;28;20029;-66
2021/12/30 06:26:50;;;;;;;19.77;3.90;;;12.90;99.90;;;12.32;100.00;101643.38;4168520;28;20029;-66
2021/12/30 06:28:51;;;;;;;16.58;4.65;;;13.00;99.90;;;12.27;100.00;101648.28;4150736;28;20124;-67
2021/12/30 06:30:52;;;;;;;19.88;4.68;;;13.00;99.90;;;12.34;100.00;101649.34;4160161;28;20026;-66
2021/12/30 06:32:53;;;;;;;21.70;3.55;;;13.00;99.90;;;12.41;100.00;101647.78;4152141;28;20037;-66
2021/12/30 06:34:54;;;;;;;19.80;3.42;;;13.00;99.90;;;12.41;100.00;101651.28;4152033;28;20030;-66
2021/12/30 06:36:55;;;;;;;13.30;3.38;;;13.00;99.90;;;12.40;100.00;101649.59;4155926;28;20119;-67
2021/12/30 06:38:56;;;;;;;19.08;4.90;;;13.10;99.90;;;12.39;100.00;101657.69;4160497;28;20053;-67
2021/12/30 06:40:57;;;;;;;16.88;3.92;;;13.00;99.90;;;12.35;100.00;101651.03;4152033;28;20034;-67
2021/12/30 06:42:58;;;;;;;21.50;4.57;;;13.00;99.90;;;12.38;100.00;101658.66;4151987;28;20072;-67
2021/12/30 06:44:59;;;;;;;16.25;3.70;;;13.00;99.90;;;12.38;100.00;101645.44;4155155;28;20030;-66
2021/12/30 06:47:02;;;;;;;17.77;3.97;;;13.10;99.90;;;12.47;100.00;101658.63;4164461;28;20048;-67
2021/12/30 06:49:07;;;;;;;14.82;2.78;;;13.10;99.90;;;12.43;100.00;101659.06;4157007;28;20065;-66
2021/12/30 06:51:08;;;;;;;10.70;2.90;;;13.10;99.90;;;12.53;100.00;101650.09;4152444;28;20025;-67
2021/12/30 06:53:09;;;;;;;16.40;3.78;;;13.10;99.90;;;12.43;100.00;101659.88;4158195;28;20125;-67
2021/12/30 06:55:11;;;;;;;18.48;3.83;;;13.10;99.90;;;12.41;100.00;101656.56;4159843;28;20610;-66
2021/12/30 06:57:13;;;;;;;21.08;4.25;;;13.20;99.90;;;12.42;100.00;101665.34;4155468;28;20038;-67
2021/12/30 06:59:17;;;;;;;20.80;4.35;;;13.10;99.90;;;12.41;100.00;101674.25;4158563;28;20033;-66
2021/12/30 07:01:18;;;;;;;19.35;3.38;;;13.20;99.90;;;12.50;100.00;101660.16;4162721;28;20088;-67
2021/12/30 07:03:19;;;;;;;20.65;4.07;;;13.10;99.90;;;12.44;100.00;101658.09;4159696;28;20022;-67
2021/12/30 07:05:20;;;;;;;15.15;4.05;;;13.10;99.90;;;12.49;100.00;101648.72;4168185;28;20076;-67
2021/12/30 07:07:21;;;;;;;12.35;2.88;;;13.10;99.90;;;12.53;100.00;101657.22;4168059;28;20104;-67
2021/12/30 07:09:23;;;;;;;14.75;3.47;;;13.10;99.90;;;12.51;100.00;101664.47;4162786;28;20038;-67
2021/12/30 07:11:23;;;;;;;15.93;3.38;;;13.20;99.90;;;12.47;100.00;101655.97;4159671;28;20036;-67
2021/12/30 07:13:25;;;;;;;13.85;3.25;;;13.20;99.90;;;12.51;100.00;101664.47;4167864;28;20026;-67
2021/12/30 07:15:26;;;;;;;12.95;2.85;;;13.20;99.90;;;12.53;100.00;101665.16;4152448;28;20529;-67
2021/12/30 07:17:29;;;;;;;13.00;3.10;;;13.20;99.90;;;12.53;100.00;101670.44;4156458;28;20017;-67
2021/12/30 07:19:30;;;;;;;20.48;3.15;;;13.20;99.90;;;12.52;100.00;101663.47;4168286;28;20033;-67
2021/12/30 07:21:31;;;;;;;15.63;3.28;;;13.20;99.90;;;12.54;100.00;101669.47;4168063;28;20550;-67
2021/12/30 07:23:32;;;;;;;17.92;3.35;;;13.20;99.90;;;12.52;100.00;101668.75;4152133;28;20034;-67
2021/12/30 07:25:33;;;;;;;21.27;4.18;;;13.30;99.90;;;12.53;100.00;101660.69;4157916;28;20083;-67
2021/12/30 07:27:35;;;;;;;17.38;3.72;;;13.30;99.90;;;12.50;100.00;101665.44;4162058;28;20405;-66
2021/12/30 07:29:36;;;;;;;16.25;4.32;;;13.30;99.90;;;12.49;100.00;101656.66;4153334;28;20030;-67
2021/12/30 07:31:36;;;;;;;25.63;8.68;;;13.30;99.90;;;12.56;100.00;101657.75;4153449;28;20515;-66
2021/12/30 07:33:38;;;;;;;18.00;5.55;;;13.20;99.90;;;12.52;100.00;101668.75;4159689;28;20028;-66
2021/12/30 07:35:39;;;;;;;12.55;4.30;;;13.30;99.90;;;12.40;100.00;101662.81;4171135;28;20023;-66
2021/12/30 07:37:40;;;;;;;14.63;4.07;;;13.20;99.90;;;12.45;100.00;101667.69;4158408;28;20119;-66
2021/12/30 07:39:42;;;;;;;16.95;4.40;;;13.20;99.90;;;12.48;100.00;101668.25;4153433;28;20074;-66
2021/12/30 07:41:43;;;;;;;12.52;3.30;;;13.20;99.90;;;12.50;100.00;101674.22;4159353;28;20053;-67
2021/12/30 07:43:44;;;;;;;18.70;5.28;;;13.30;99.90;;;12.45;100.00;101671.19;4170638;28;20060;-66
2021/12/30 07:45:45;;;;;;;16.27;3.70;;;13.20;99.90;;;12.37;100.00;101673.69;4158509;28;20409;-66
2021/12/30 07:47:46;;;;;;;18.80;4.20;;;13.20;99.90;;;12.37;100.00;101662.28;4168979;28;20037;-66
2021/12/30 07:49:48;;;;;;;23.13;5.47;;;13.20;99.90;;;12.38;100.00;101677.19;4171119;28;20025;-66
2021/12/30 07:51:49;;;;;;;17.00;2.85;;;13.20;99.90;;;12.33;100.00;101664.41;4170950;28;20033;-66
2021/12/30 07:53:50;;;;;;;14.65;3.95;;;13.10;99.90;;;12.31;100.00;101669.00;4170856;28;20033;-66
2021/12/30 07:55:51;;;;;;;19.13;4.53;;;13.10;99.90;;;12.39;100.00;101663.00;4170748;28;20029;-66
2021/12/30 07:57:55;;;;;;;13.65;3.85;;;13.10;99.90;;;12.45;100.00;101668.53;4168304;28;20020;-66
2021/12/30 07:59:56;;;;;;;15.80;3.58;;;13.10;99.90;;;12.42;100.00;101675.94;4170515;28;20117;-66
2021/12/30 08:01:58;;;;;;;18.83;4.30;;;13.10;99.90;;;12.37;100.00;101681.63;4159452;28;20026;-66
2021/12/30 08:03:59;;;;;;;15.93;3.38;;;13.10;99.90;;;12.42;100.00;101683.88;4167635;28;20033;-67
2021/12/30 08:06:00;;;;;;;17.23;3.83;;;13.10;99.90;;;12.42;100.00;101694.44;4166133;28;20120;-66
2021/12/30 08:08:01;;;;;;;15.95;4.05;;;13.10;99.90;;;12.38;100.00;101687.78;4160707;28;20462;-66
2021/12/30 08:10:05;;;;;;;10.85;3.38;;;13.10;99.90;;;12.45;100.00;101705.59;4159538;28;20030;-66
2021/12/30 08:12:07;;;;;;;12.80;2.80;;;13.10;99.90;;;12.46;100.00;101696.66;4136859;28;20030;-66
2021/12/30 08:14:08;;;;;;;12.98;3.33;;;13.10;99.90;;;12.49;100.00;101696.34;4157426;28;20548;-66
2021/12/30 08:16:09;;;;;;;16.40;3.25;;;13.20;99.90;;;12.47;100.00;101698.31;4162649;28;20092;-66
2021/12/30 08:18:10;;;;;;;17.58;4.70;;;13.20;99.90;;;12.47;100.00;101693.03;4164236;28;20021;-66